createdAt,value
2022-12-31T00:00:40.719Z,10.30
2022-12-31T00:03:10.654Z,10.30
2022-12-31T00:05:38.861Z,10.30
2022-12-31T00:08:07.036Z,10.40
2022-12-31T00:10:41.294Z,10.40
2022-12-31T00:13:09.891Z,10.40
2022-12-31T00:15:39.657Z,10.40
2022-12-31T00:18:08.614Z,10.40
2022-12-31T00:20:40.905Z,10.50
2022-12-31T00:23:09.536Z,10.50
2022-12-31T00:25:37.976Z,10.50
2022-12-31T00:28:06.760Z,10.50
2022-12-31T00:30:35.787Z,10.60
2022-12-31T00:33:05.213Z,10.60
2022-12-31T00:35:34.767Z,10.70
2022-12-31T00:38:02.821Z,10.70
2022-12-31T00:40:31.004Z,10.60
2022-12-31T00:42:59.047Z,10.70
2022-12-31T00:45:27.109Z,10.70
2022-12-31T00:47:55.140Z,10.70
2022-12-31T00:50:24.658Z,10.70
2022-12-31T00:52:52.698Z,10.70
2022-12-31T00:55:20.768Z,10.70
2022-12-31T00:57:48.803Z,10.70
2022-12-31T01:00:17.883Z,10.70
2022-12-31T01:02:46.064Z,10.70
2022-12-31T01:05:14.270Z,10.70
2022-12-31T01:07:43.695Z,10.70
2022-12-31T01:10:11.839Z,10.80
2022-12-31T01:12:39.900Z,10.80
2022-12-31T01:15:08.844Z,10.80
2022-12-31T01:17:36.903Z,10.80
2022-12-31T01:20:05.218Z,10.80
2022-12-31T01:22:33.521Z,10.70
2022-12-31T01:25:02.970Z,10.80
2022-12-31T01:27:31.023Z,10.80
2022-12-31T01:29:59.155Z,10.80
2022-12-31T01:32:27.183Z,10.90
2022-12-31T01:34:55.239Z,10.90
2022-12-31T01:37:23.274Z,10.90
2022-12-31T01:39:51.363Z,10.90
2022-12-31T01:42:20.804Z,10.90
2022-12-31T01:44:54.665Z,10.90
2022-12-31T01:47:34.399Z,11.00
2022-12-31T01:50:07.794Z,11.00
2022-12-31T01:52:38.458Z,11.00
2022-12-31T01:55:17.656Z,11.00
2022-12-31T01:57:50.765Z,11.00
2022-12-31T02:00:19.492Z,11.00
2022-12-31T02:02:47.972Z,11.10
2022-12-31T02:05:21.350Z,11.10
2022-12-31T02:07:50.489Z,11.10
2022-12-31T02:10:18.887Z,11.20
2022-12-31T02:12:49.036Z,11.20
2022-12-31T02:15:17.645Z,11.20
2022-12-31T02:17:52.037Z,11.20
2022-12-31T02:20:55.193Z,11.20
2022-12-31T02:23:48.387Z,11.30
2022-12-31T02:26:54.724Z,11.20
2022-12-31T02:29:59.683Z,11.30
2022-12-31T02:32:39.639Z,11.30
2022-12-31T02:35:12.073Z,11.40
2022-12-31T02:37:43.137Z,11.40
2022-12-31T02:40:14.455Z,11.40
2022-12-31T02:42:42.548Z,11.50
2022-12-31T02:45:13.884Z,11.50
2022-12-31T02:47:56.842Z,11.40
2022-12-31T02:50:35.928Z,11.50
2022-12-31T02:53:19.953Z,11.50
2022-12-31T02:55:56.345Z,11.50
2022-12-31T02:58:46.399Z,11.60
2022-12-31T03:01:36.341Z,11.60
2022-12-31T03:04:20.508Z,11.60
2022-12-31T03:06:48.707Z,11.60
2022-12-31T03:09:16.775Z,11.70
2022-12-31T03:12:02.762Z,11.70
2022-12-31T03:14:30.826Z,11.70
2022-12-31T03:16:58.908Z,11.80
2022-12-31T03:19:45.959Z,11.90
2022-12-31T03:22:29.422Z,11.90
2022-12-31T03:25:18.214Z,11.90
2022-12-31T03:27:46.985Z,12.00
2022-12-31T03:30:16.754Z,12.00
2022-12-31T03:32:46.615Z,12.00
2022-12-31T03:35:17.665Z,12.10
2022-12-31T03:37:46.276Z,12.10
2022-12-31T03:40:15.658Z,12.10
2022-12-31T03:42:43.933Z,12.10
2022-12-31T03:45:13.362Z,12.10
2022-12-31T03:47:41.537Z,12.10
2022-12-31T03:50:11.043Z,12.10
2022-12-31T03:52:40.670Z,12.20
2022-12-31T03:55:10.253Z,12.20
2022-12-31T03:57:38.641Z,12.20
2022-12-31T04:00:09.973Z,12.30
2022-12-31T04:02:38.174Z,12.30
2022-12-31T04:05:07.275Z,12.30
2022-12-31T04:07:35.412Z,12.30
2022-12-31T04:10:05.858Z,12.30
2022-12-31T04:12:34.486Z,12.30
2022-12-31T04:15:02.597Z,12.30
2022-12-31T04:17:30.655Z,12.40
2022-12-31T04:19:58.741Z,12.40
2022-12-31T04:22:26.863Z,12.40
2022-12-31T04:24:54.891Z,12.40
2022-12-31T04:27:24.397Z,12.50
2022-12-31T04:29:52.428Z,12.50
2022-12-31T04:32:20.572Z,12.50
2022-12-31T04:34:48.610Z,12.50
2022-12-31T04:37:16.692Z,12.50
2022-12-31T04:39:44.731Z,12.50
2022-12-31T04:42:12.813Z,12.60
2022-12-31T04:44:42.201Z,12.70
2022-12-31T04:47:10.268Z,12.70
2022-12-31T04:49:38.373Z,12.60
2022-12-31T04:52:06.619Z,12.60
2022-12-31T04:54:34.681Z,12.70
2022-12-31T04:57:02.744Z,12.70
2022-12-31T04:59:30.769Z,12.70
2022-12-31T05:02:00.340Z,12.60
2022-12-31T05:04:28.713Z,12.60
2022-12-31T05:06:56.773Z,12.60
2022-12-31T05:09:27.542Z,12.60
2022-12-31T05:11:55.640Z,12.70
2022-12-31T05:14:23.692Z,12.70
2022-12-31T05:16:52.075Z,12.70
2022-12-31T05:19:21.718Z,12.70
2022-12-31T05:22:09.779Z,12.70
2022-12-31T05:24:37.989Z,12.70
2022-12-31T05:27:06.069Z,12.70
2022-12-31T05:29:34.257Z,12.70
2022-12-31T05:32:02.325Z,12.70
2022-12-31T05:34:31.776Z,12.70
2022-12-31T05:36:59.800Z,12.70
2022-12-31T05:39:27.865Z,12.70
2022-12-31T05:41:55.917Z,12.70
2022-12-31T05:44:23.988Z,12.70
2022-12-31T05:46:52.063Z,12.70
2022-12-31T05:49:20.123Z,12.80
2022-12-31T05:51:49.540Z,12.80
2022-12-31T05:54:17.682Z,12.80
2022-12-31T05:56:45.939Z,12.90
2022-12-31T05:59:14.035Z,12.80
2022-12-31T06:01:42.110Z,12.90
2022-12-31T06:04:10.209Z,12.90
2022-12-31T06:06:38.260Z,13.00
2022-12-31T06:09:07.727Z,12.90
2022-12-31T06:11:35.802Z,13.00
2022-12-31T06:14:04.765Z,13.00
2022-12-31T06:16:32.819Z,13.00
2022-12-31T06:19:01.635Z,13.00
2022-12-31T06:21:30.503Z,13.10
2022-12-31T06:23:58.973Z,13.10
2022-12-31T06:26:28.775Z,13.10
2022-12-31T06:28:56.852Z,13.20
2022-12-31T06:31:24.962Z,13.20
2022-12-31T06:33:53.049Z,13.20
2022-12-31T06:36:22.351Z,13.30
2022-12-31T06:38:51.158Z,13.30
2022-12-31T06:41:19.419Z,13.30
2022-12-31T06:43:49.106Z,13.30
2022-12-31T06:46:18.432Z,13.30
2022-12-31T06:48:47.149Z,13.30
2022-12-31T06:51:17.796Z,13.30
2022-12-31T06:53:46.388Z,13.30
2022-12-31T06:56:17.774Z,13.30
2022-12-31T06:58:48.272Z,13.30
2022-12-31T07:01:37.622Z,13.40
2022-12-31T07:04:30.082Z,13.40
2022-12-31T07:07:06.927Z,13.40
2022-12-31T07:09:41.125Z,13.40
2022-12-31T07:12:19.904Z,13.50
2022-12-31T07:14:55.743Z,13.50
2022-12-31T07:17:32.664Z,13.60
2022-12-31T07:20:04.727Z,13.60
2022-12-31T07:22:33.292Z,13.60
2022-12-31T07:25:01.901Z,13.60
2022-12-31T07:27:58.645Z,13.70
2022-12-31T07:30:37.159Z,13.60
2022-12-31T07:33:26.814Z,13.70
2022-12-31T07:36:04.707Z,13.70
2022-12-31T07:38:41.292Z,13.70
2022-12-31T07:41:15.960Z,13.70
2022-12-31T07:43:57.442Z,13.70
2022-12-31T07:46:36.899Z,13.70
2022-12-31T07:49:05.469Z,13.70
2022-12-31T07:51:34.114Z,13.70
2022-12-31T07:54:02.186Z,13.70
2022-12-31T07:56:31.215Z,13.70
2022-12-31T07:59:09.176Z,13.80
2022-12-31T08:01:47.413Z,13.80
2022-12-31T08:04:28.073Z,13.80
2022-12-31T08:07:04.543Z,13.80
2022-12-31T08:09:45.324Z,13.80
2022-12-31T08:12:14.130Z,13.80
2022-12-31T08:14:46.661Z,13.80
2022-12-31T08:17:18.109Z,13.80
2022-12-31T08:19:47.410Z,13.80
2022-12-31T08:22:37.402Z,13.80
2022-12-31T08:25:15.328Z,13.90
2022-12-31T08:27:51.846Z,13.90
2022-12-31T08:30:22.587Z,14.00
2022-12-31T08:33:01.239Z,14.00
2022-12-31T08:35:37.965Z,14.00
2022-12-31T08:38:18.658Z,14.00
2022-12-31T08:40:54.597Z,14.10
2022-12-31T08:43:36.898Z,14.10
2022-12-31T08:46:16.700Z,14.20
2022-12-31T08:48:48.451Z,14.20
2022-12-31T08:51:20.761Z,14.20
2022-12-31T08:53:49.819Z,14.30
2022-12-31T08:56:27.307Z,14.30
2022-12-31T08:59:05.103Z,14.30
2022-12-31T09:01:42.191Z,14.30
2022-12-31T09:04:21.353Z,14.30
2022-12-31T09:06:55.777Z,14.30
2022-12-31T09:09:34.025Z,14.40
2022-12-31T09:12:09.548Z,14.40
2022-12-31T09:14:47.475Z,14.30
2022-12-31T09:17:40.924Z,14.30
2022-12-31T09:20:18.115Z,14.40
2022-12-31T09:22:46.566Z,14.40
2022-12-31T09:25:16.642Z,14.40
2022-12-31T09:27:50.416Z,14.40
2022-12-31T09:30:19.914Z,14.40
2022-12-31T09:33:00.769Z,14.50
2022-12-31T09:35:37.282Z,14.50
2022-12-31T09:38:13.092Z,14.40
2022-12-31T09:40:55.556Z,14.40
2022-12-31T09:44:06.159Z,14.50
2022-12-31T09:47:10.563Z,14.40
2022-12-31T09:50:07.297Z,14.50
2022-12-31T09:52:52.607Z,14.70
2022-12-31T09:55:38.374Z,14.60
2022-12-31T09:58:23.717Z,14.70
2022-12-31T10:00:56.494Z,14.60
2022-12-31T10:03:54.582Z,14.60
2022-12-31T10:06:26.873Z,14.60
2022-12-31T10:09:13.635Z,14.70
2022-12-31T10:12:05.881Z,14.60
2022-12-31T10:14:51.839Z,14.70
2022-12-31T10:17:30.936Z,14.80
2022-12-31T10:20:25.502Z,14.80
2022-12-31T10:23:18.988Z,14.80
2022-12-31T10:26:10.170Z,14.80
2022-12-31T10:28:46.105Z,14.90
2022-12-31T10:31:16.815Z,14.90
2022-12-31T10:33:52.550Z,14.90
2022-12-31T10:36:27.696Z,14.90
2022-12-31T10:39:15.230Z,14.90
2022-12-31T10:42:14.007Z,15.00
2022-12-31T10:45:27.168Z,15.10
2022-12-31T10:48:24.916Z,15.10
2022-12-31T10:51:09.832Z,15.10
2022-12-31T10:54:01.799Z,15.20
2022-12-31T10:57:10.716Z,15.20
2022-12-31T11:00:10.356Z,15.20
2022-12-31T11:03:23.429Z,15.20
2022-12-31T11:06:55.309Z,15.30
2022-12-31T11:09:52.847Z,15.30
2022-12-31T11:12:49.287Z,15.20
2022-12-31T11:15:39.326Z,15.40
2022-12-31T11:18:16.656Z,15.30
2022-12-31T11:21:00.296Z,15.30
2022-12-31T11:23:39.029Z,15.30
2022-12-31T11:26:16.262Z,15.30
2022-12-31T11:29:01.584Z,15.40
2022-12-31T11:31:43.224Z,15.40
2022-12-31T11:34:25.557Z,15.50
2022-12-31T11:37:11.232Z,15.50
2022-12-31T11:39:50.194Z,15.50
2022-12-31T11:42:22.480Z,15.60
2022-12-31T11:44:58.527Z,15.70
2022-12-31T11:48:28.652Z,15.70
2022-12-31T11:50:45.793Z,15.60
2022-12-31T11:53:30.982Z,15.70
2022-12-31T11:56:07.584Z,15.70
2022-12-31T11:58:35.654Z,15.70
2022-12-31T12:01:11.959Z,15.70
2022-12-31T12:03:49.195Z,15.70
2022-12-31T12:06:27.075Z,15.80
2022-12-31T12:09:00.320Z,15.80
2022-12-31T12:11:33.130Z,15.90
2022-12-31T12:14:01.177Z,15.80
2022-12-31T12:16:29.830Z,15.80
2022-12-31T12:19:08.893Z,15.80
2022-12-31T12:21:46.648Z,15.80
2022-12-31T12:24:21.169Z,15.80
2022-12-31T12:26:49.693Z,15.80
2022-12-31T12:29:20.465Z,15.90
2022-12-31T12:31:59.849Z,15.90
2022-12-31T12:34:32.137Z,15.90
2022-12-31T12:37:00.655Z,15.90
2022-12-31T12:39:31.713Z,15.90
2022-12-31T12:42:04.565Z,16.00
2022-12-31T12:44:33.260Z,15.90
2022-12-31T12:47:03.674Z,15.80
2022-12-31T12:49:39.460Z,15.90
2022-12-31T12:52:38.765Z,15.90
2022-12-31T12:55:18.007Z,15.80
2022-12-31T12:57:53.761Z,15.90
2022-12-31T13:00:23.286Z,15.90
2022-12-31T13:03:13.511Z,15.90
2022-12-31T13:06:05.513Z,15.90
2022-12-31T13:08:49.766Z,15.90
2022-12-31T13:11:31.066Z,16.00
2022-12-31T13:14:11.264Z,16.10
2022-12-31T13:16:46.397Z,16.00
2022-12-31T13:19:20.914Z,16.10
2022-12-31T13:21:59.131Z,16.00
2022-12-31T13:24:36.622Z,16.00
2022-12-31T13:27:10.105Z,16.00
2022-12-31T13:29:40.636Z,16.00
2022-12-31T13:32:13.794Z,16.00
2022-12-31T13:34:45.473Z,16.00
2022-12-31T13:37:25.668Z,15.90
2022-12-31T13:40:01.338Z,15.90
2022-12-31T13:42:37.194Z,15.80
2022-12-31T13:45:12.751Z,15.90
2022-12-31T13:47:45.009Z,15.80
2022-12-31T13:50:20.414Z,15.80
2022-12-31T13:52:57.796Z,15.80
2022-12-31T13:55:31.861Z,15.80
2022-12-31T13:58:10.589Z,15.80
2022-12-31T14:00:45.049Z,15.70
2022-12-31T14:03:21.058Z,15.70
2022-12-31T14:05:54.972Z,15.70
2022-12-31T14:08:24.512Z,15.60
2022-12-31T14:11:01.512Z,15.60
2022-12-31T14:13:41.794Z,15.50
2022-12-31T14:16:23.166Z,15.50
2022-12-31T14:19:01.916Z,15.50
2022-12-31T14:21:35.586Z,15.50
2022-12-31T14:24:14.041Z,15.50
2022-12-31T14:26:45.890Z,15.50
2022-12-31T14:29:35.173Z,15.50
2022-12-31T14:32:19.529Z,15.50
2022-12-31T14:34:55.705Z,15.50
2022-12-31T14:37:32.271Z,15.50
2022-12-31T14:40:13.472Z,15.40
2022-12-31T14:42:52.655Z,15.40
2022-12-31T14:45:31.463Z,15.20
2022-12-31T14:48:07.627Z,15.10
2022-12-31T14:50:35.998Z,15.00
2022-12-31T14:53:18.604Z,14.90
2022-12-31T14:55:58.493Z,14.90
2022-12-31T14:58:33.666Z,14.80
2022-12-31T15:01:03.422Z,14.70
2022-12-31T15:03:42.993Z,14.80
2022-12-31T15:06:35.120Z,14.70
2022-12-31T15:09:12.933Z,14.70
2022-12-31T15:12:13.244Z,14.60
2022-12-31T15:15:10.512Z,14.60
2022-12-31T15:17:52.034Z,14.60
2022-12-31T15:20:36.868Z,14.60
2022-12-31T15:23:15.742Z,14.50
2022-12-31T15:25:49.307Z,14.50
2022-12-31T15:28:33.945Z,14.50
2022-12-31T15:31:18.806Z,14.50
2022-12-31T15:33:57.537Z,14.40
2022-12-31T15:36:27.971Z,14.40
2022-12-31T15:39:08.137Z,14.30
2022-12-31T15:42:02.968Z,14.30
2022-12-31T15:44:39.444Z,14.30
2022-12-31T15:47:30.037Z,14.30
2022-12-31T15:50:00.863Z,14.20
2022-12-31T15:52:40.572Z,14.20
2022-12-31T15:55:09.659Z,14.10
2022-12-31T15:57:40.299Z,14.10
2022-12-31T16:00:18.445Z,14.10
2022-12-31T16:02:48.201Z,14.00
2022-12-31T16:05:24.222Z,14.00
2022-12-31T16:07:55.057Z,13.90
2022-12-31T16:10:26.432Z,13.80
2022-12-31T16:12:55.733Z,13.80
2022-12-31T16:15:28.008Z,13.70
2022-12-31T16:18:01.841Z,13.70
2022-12-31T16:20:33.715Z,13.60
2022-12-31T16:23:03.568Z,13.60
2022-12-31T16:25:33.750Z,13.60
2022-12-31T16:28:04.192Z,13.50
2022-12-31T16:30:36.017Z,13.50
2022-12-31T16:33:06.572Z,13.40
2022-12-31T16:35:37.486Z,13.40
2022-12-31T16:38:14.291Z,13.40
2022-12-31T16:40:44.194Z,13.40
2022-12-31T16:43:27.909Z,13.30
2022-12-31T16:46:00.051Z,13.30
2022-12-31T16:48:28.407Z,13.30
2022-12-31T16:50:57.618Z,13.30
2022-12-31T16:53:29.896Z,13.30
2022-12-31T16:56:03.208Z,13.30
2022-12-31T16:58:33.309Z,13.30
2022-12-31T17:01:11.111Z,13.20
2022-12-31T17:03:42.923Z,13.20
2022-12-31T17:06:15.961Z,13.20
2022-12-31T17:08:46.290Z,13.20
2022-12-31T17:11:25.391Z,13.20
2022-12-31T17:13:59.192Z,13.20
2022-12-31T17:16:28.844Z,13.10
2022-12-31T17:18:57.131Z,13.10
2022-12-31T17:21:28.201Z,13.10
2022-12-31T17:24:01.412Z,13.10
2022-12-31T17:26:32.057Z,13.00
2022-12-31T17:29:01.305Z,13.00
2022-12-31T17:31:33.723Z,13.10
2022-12-31T17:34:30.827Z,13.20
2022-12-31T17:37:04.537Z,13.20
2022-12-31T17:39:50.317Z,13.20
2022-12-31T17:42:27.483Z,13.20
2022-12-31T17:44:59.559Z,13.20
2022-12-31T17:47:35.762Z,13.20
2022-12-31T17:50:17.530Z,13.20
2022-12-31T17:52:45.583Z,13.20
2022-12-31T17:55:13.612Z,13.20
2022-12-31T17:57:49.554Z,13.20
2022-12-31T18:00:20.030Z,13.20
2022-12-31T18:02:49.536Z,13.20
2022-12-31T18:05:19.475Z,13.20
2022-12-31T18:07:47.699Z,13.10
2022-12-31T18:10:18.948Z,13.10
2022-12-31T18:12:48.571Z,13.20
2022-12-31T18:15:18.216Z,13.20
2022-12-31T18:17:46.343Z,13.20
2022-12-31T18:20:16.289Z,13.20
2022-12-31T18:22:45.922Z,13.20
2022-12-31T18:25:17.858Z,13.20
2022-12-31T18:27:45.932Z,13.10
2022-12-31T18:30:16.550Z,13.20
2022-12-31T18:32:46.159Z,13.20
2022-12-31T18:35:40.782Z,13.30
2022-12-31T18:38:07.302Z,13.20
2022-12-31T18:40:35.446Z,13.30
2022-12-31T18:43:05.238Z,13.20
2022-12-31T18:45:33.512Z,13.20
2022-12-31T18:48:01.556Z,13.30
2022-12-31T18:50:31.000Z,13.20
2022-12-31T18:52:59.013Z,13.20
2022-12-31T18:55:33.410Z,13.20
2022-12-31T18:58:01.437Z,13.20
2022-12-31T19:00:29.693Z,13.10
2022-12-31T19:02:57.764Z,13.10
2022-12-31T19:05:28.569Z,13.10
2022-12-31T19:07:58.508Z,13.10
2022-12-31T19:10:27.468Z,13.10
2022-12-31T19:12:56.679Z,13.00
2022-12-31T19:15:28.275Z,13.00
2022-12-31T19:17:56.830Z,13.00
2022-12-31T19:20:25.122Z,13.00
2022-12-31T19:22:53.313Z,13.10
2022-12-31T19:25:25.324Z,13.10
2022-12-31T19:27:54.218Z,13.00
2022-12-31T19:30:25.237Z,13.10
2022-12-31T19:32:53.888Z,13.10
2022-12-31T19:35:23.172Z,13.00
2022-12-31T19:37:53.681Z,13.10
2022-12-31T19:40:25.429Z,13.00
2022-12-31T19:42:54.905Z,13.00
2022-12-31T19:45:24.521Z,13.10
2022-12-31T19:47:52.809Z,13.10
2022-12-31T19:50:22.946Z,13.10
2022-12-31T19:52:54.101Z,13.00
2022-12-31T19:55:25.177Z,13.00
2022-12-31T19:57:53.421Z,13.00
2022-12-31T20:00:22.294Z,13.00
2022-12-31T20:02:50.866Z,13.00
2022-12-31T20:05:19.617Z,13.00
2022-12-31T20:07:47.729Z,13.00
2022-12-31T20:10:16.003Z,13.10
2022-12-31T20:12:45.408Z,13.00
2022-12-31T20:15:13.518Z,13.00
2022-12-31T20:17:41.638Z,13.10
2022-12-31T20:20:10.367Z,13.00
2022-12-31T20:22:38.515Z,13.10
2022-12-31T20:25:07.192Z,13.00
2022-12-31T20:27:35.362Z,13.00
2022-12-31T20:30:05.426Z,12.90
2022-12-31T20:32:34.565Z,12.90
2022-12-31T20:35:03.954Z,13.00
2022-12-31T20:37:32.036Z,12.90
2022-12-31T20:40:00.106Z,12.90
2022-12-31T20:42:28.170Z,12.90
2022-12-31T20:44:56.208Z,12.90
2022-12-31T20:47:25.663Z,12.90
2022-12-31T20:50:11.023Z,12.90
2022-12-31T20:52:39.852Z,12.80
2022-12-31T20:55:09.668Z,12.80
2022-12-31T20:57:37.869Z,12.90
2022-12-31T21:00:07.876Z,12.90
2022-12-31T21:02:42.782Z,12.90
2022-12-31T21:05:12.205Z,12.90
2022-12-31T21:07:40.427Z,12.90
2022-12-31T21:10:09.402Z,12.80
2022-12-31T21:12:46.431Z,12.80
2022-12-31T21:15:15.009Z,12.80
2022-12-31T21:17:44.441Z,12.70
2022-12-31T21:20:13.362Z,12.80
2022-12-31T21:22:41.430Z,12.80
2022-12-31T21:25:10.977Z,12.80
2022-12-31T21:27:39.059Z,12.80
2022-12-31T21:30:23.372Z,12.80
2022-12-31T21:32:52.820Z,12.90
2022-12-31T21:38:09.034Z,12.80
2022-12-31T21:40:37.080Z,12.80
2022-12-31T21:43:05.186Z,12.80
2022-12-31T21:45:33.313Z,12.80
2022-12-31T21:48:21.352Z,12.80
2022-12-31T21:50:51.509Z,12.80
2022-12-31T21:53:24.782Z,12.80
2022-12-31T21:56:08.379Z,12.80
2022-12-31T21:58:36.937Z,12.80
2022-12-31T22:01:22.961Z,12.80
2022-12-31T22:03:52.553Z,12.80
2022-12-31T22:06:22.818Z,12.80
2022-12-31T22:08:53.415Z,12.70
2022-12-31T22:11:23.165Z,12.70
2022-12-31T22:13:51.828Z,12.70
2022-12-31T22:16:21.229Z,12.70
2022-12-31T22:18:49.550Z,12.70
2022-12-31T22:21:20.949Z,12.70
2022-12-31T22:23:50.875Z,12.70
2022-12-31T22:26:24.560Z,12.70
2022-12-31T22:28:53.160Z,12.70
2022-12-31T22:31:24.498Z,12.70
2022-12-31T22:33:53.068Z,12.60
2022-12-31T22:36:24.359Z,12.60
2022-12-31T22:38:57.390Z,12.60
2022-12-31T22:41:26.988Z,12.60
2022-12-31T22:44:03.172Z,12.60
2022-12-31T22:46:32.918Z,12.50
2022-12-31T22:49:01.991Z,12.50
2022-12-31T22:51:58.767Z,12.50
2022-12-31T22:54:21.035Z,12.40
2022-12-31T22:56:49.090Z,12.40
2022-12-31T22:59:17.184Z,12.30
2022-12-31T23:01:45.750Z,12.30
2022-12-31T23:04:14.216Z,12.30
2022-12-31T23:06:47.234Z,12.30
2022-12-31T23:09:34.956Z,12.30
2022-12-31T23:12:04.975Z,12.30
2022-12-31T23:14:50.736Z,12.20
2022-12-31T23:17:38.536Z,12.30
2022-12-31T23:20:29.367Z,12.20
2022-12-31T23:23:08.938Z,12.20
2022-12-31T23:25:39.453Z,12.30
2022-12-31T23:28:08.494Z,12.20
2022-12-31T23:30:39.411Z,12.10
2022-12-31T23:33:08.139Z,12.10
2022-12-31T23:35:36.206Z,12.10
2022-12-31T23:38:05.668Z,12.20
2022-12-31T23:40:35.234Z,12.20
2022-12-31T23:43:04.437Z,12.10
2022-12-31T23:45:33.578Z,12.10
2022-12-31T23:48:02.071Z,12.20
2022-12-31T23:50:30.167Z,12.20
2022-12-31T23:52:58.291Z,12.20
2022-12-31T23:55:27.756Z,12.20
2022-12-31T23:57:56.523Z,12.20
